createdAt,value
2018-04-23T00:00:55.565Z,100520.59
2018-04-23T00:01:58.921Z,100544.73
2018-04-23T00:03:02.272Z,100554.34
2018-04-23T00:04:05.626Z,100555.77
2018-04-23T00:05:08.981Z,100551.24
2018-04-23T00:06:12.387Z,100565.23
2018-04-23T00:07:15.734Z,100572.63
2018-04-23T00:08:19.075Z,100576.94
2018-04-23T00:09:22.460Z,100575.07
2018-04-23T00:10:26.594Z,100575.92
2018-04-23T00:11:29.970Z,100577.48
2018-04-23T00:12:33.298Z,100591.64
2018-04-23T00:13:36.604Z,100591.20
2018-04-23T00:14:39.934Z,100603.33
2018-04-23T00:15:43.371Z,100613.64
2018-04-23T00:16:46.748Z,100611.61
2018-04-23T00:17:51.059Z,100622.48
2018-04-23T00:18:55.202Z,100617.67
2018-04-23T00:19:58.606Z,100637.51
2018-04-23T00:21:02.018Z,100617.88
2018-04-23T00:22:05.432Z,100604.62
2018-04-23T00:23:09.077Z,100597.88
2018-04-23T00:24:12.450Z,100596.84
2018-04-23T00:25:15.894Z,100590.91
2018-04-23T00:26:19.293Z,100584.64
2018-04-23T00:27:22.673Z,100585.35
2018-04-23T00:28:26.779Z,100581.00
2018-04-23T00:29:30.235Z,100560.60
2018-04-23T00:30:33.831Z,100571.22
2018-04-23T00:31:37.234Z,100566.23
2018-04-23T00:32:40.687Z,100558.17
2018-04-23T00:33:44.048Z,100555.81
2018-04-23T00:34:47.397Z,100548.16
2018-04-23T00:35:50.722Z,100549.41
2018-04-23T00:36:54.027Z,100549.70
2018-04-23T00:37:57.447Z,100548.70
2018-04-23T00:39:00.802Z,100551.84
2018-04-23T00:40:04.413Z,100550.34
2018-04-23T00:41:08.558Z,100543.19
2018-04-23T00:42:11.921Z,100542.27
2018-04-23T00:43:15.280Z,100543.55
2018-04-23T00:44:18.654Z,100543.39
2018-04-23T00:45:22.088Z,100535.05
2018-04-23T00:46:25.444Z,100539.82
2018-04-23T00:47:28.831Z,100538.73
2018-04-23T00:48:32.190Z,100532.98
2018-04-23T00:49:35.573Z,100529.92
2018-04-23T00:50:38.988Z,100527.31
2018-04-23T00:51:42.392Z,100522.40
2018-04-23T00:52:45.837Z,100520.25
2018-04-23T00:53:49.252Z,100519.83
2018-04-23T00:54:52.648Z,100527.57
2018-04-23T00:55:56.026Z,100527.93
2018-04-23T00:57:00.097Z,100533.10
2018-04-23T00:58:03.443Z,100533.57
2018-04-23T00:59:06.889Z,100524.52
2018-04-23T01:00:10.433Z,100525.48
2018-04-23T01:01:14.620Z,100527.67
2018-04-23T01:02:17.970Z,100526.70
2018-04-23T01:03:21.402Z,100527.59
2018-04-23T01:04:25.548Z,100527.20
2018-04-23T01:05:28.899Z,100528.04
2018-04-23T01:06:33.067Z,100528.47
2018-04-23T01:07:36.451Z,100528.47
2018-04-23T01:08:39.785Z,100526.30
2018-04-23T01:09:43.161Z,100523.64
2018-04-23T01:10:47.252Z,100522.24
2018-04-23T01:11:50.685Z,100518.36
2018-04-23T01:12:54.147Z,100517.12
2018-04-23T01:13:58.276Z,100519.30
2018-04-23T01:15:01.626Z,100517.55
2018-04-23T01:16:04.966Z,100519.16
2018-04-23T01:17:08.297Z,100525.41
2018-04-23T01:18:11.736Z,100522.42
2018-04-23T01:19:15.126Z,100522.89
2018-04-23T01:20:18.558Z,100520.40
2018-04-23T01:21:21.880Z,100527.84
2018-04-23T01:22:25.215Z,100525.58
2018-04-23T01:23:28.585Z,100517.80
2018-04-23T01:24:31.927Z,100529.11
2018-04-23T01:25:35.271Z,100522.16
2018-04-23T01:26:38.654Z,100525.27
2018-04-23T01:27:41.994Z,100525.75
2018-04-23T01:28:45.383Z,100521.42
2018-04-23T01:29:48.695Z,100520.92
2018-04-23T01:30:52.018Z,100525.58
2018-04-23T01:31:55.365Z,100530.73
2018-04-23T01:32:59.174Z,100529.00
2018-04-23T01:34:02.532Z,100530.31
2018-04-23T01:35:05.952Z,100528.64
2018-04-23T01:36:09.418Z,100532.05
2018-04-23T01:37:12.783Z,100529.79
2018-04-23T01:38:16.181Z,100527.81
2018-04-23T01:39:23.490Z,100536.42
2018-04-23T01:40:27.676Z,100538.13
2018-04-23T01:41:31.024Z,100536.38
2018-04-23T01:42:34.388Z,100541.09
2018-04-23T01:43:37.762Z,100538.86
2018-04-23T01:44:41.897Z,100541.53
2018-04-23T01:45:45.290Z,100550.21
2018-04-23T01:46:48.671Z,100542.48
2018-04-23T01:47:51.999Z,100548.60
2018-04-23T01:48:55.329Z,100551.23
2018-04-23T01:49:58.680Z,100541.31
2018-04-23T01:51:02.051Z,100548.80
2018-04-23T01:52:05.440Z,100543.55
2018-04-23T01:53:08.755Z,100539.70
2018-04-23T01:54:12.132Z,100540.20
2018-04-23T01:55:15.443Z,100532.39
2018-04-23T01:56:18.796Z,100535.92
2018-04-23T01:57:22.149Z,100538.87
2018-04-23T01:58:25.452Z,100542.77
2018-04-23T01:59:28.778Z,100547.14
2018-04-23T02:00:32.107Z,100537.74
2018-04-23T02:01:36.795Z,100538.05
2018-04-23T02:02:40.136Z,100541.36
2018-04-23T02:03:44.223Z,100536.17
2018-04-23T02:04:47.531Z,100534.36
2018-04-23T02:05:51.613Z,100531.59
2018-04-23T02:06:54.957Z,100552.80
2018-04-23T02:07:58.442Z,100548.06
2018-04-23T02:09:01.812Z,100562.41
2018-04-23T02:10:05.100Z,100559.41
2018-04-23T02:11:08.545Z,100564.62
2018-04-23T02:12:12.718Z,100561.14
2018-04-23T02:13:16.120Z,100564.64
2018-04-23T02:14:19.475Z,100565.56
2018-04-23T02:15:22.810Z,100561.76
2018-04-23T02:16:26.179Z,100554.12
2018-04-23T02:17:29.546Z,100563.56
2018-04-23T02:18:32.874Z,100570.00
2018-04-23T02:19:36.236Z,100563.95
2018-04-23T02:20:39.555Z,100568.70
2018-04-23T02:21:43.648Z,100563.17
2018-04-23T02:22:47.735Z,100555.37
2018-04-23T02:23:51.095Z,100554.43
2018-04-23T02:24:54.453Z,100554.39
2018-04-23T02:25:57.799Z,100561.22
2018-04-23T02:27:01.131Z,100560.90
2018-04-23T02:28:04.459Z,100563.77
2018-04-23T02:29:07.852Z,100572.95
2018-04-23T02:30:11.976Z,100576.45
2018-04-23T02:31:16.978Z,100567.93
2018-04-23T02:32:20.307Z,100571.64
2018-04-23T02:33:23.619Z,100570.64
2018-04-23T02:34:26.971Z,100568.36
2018-04-23T02:35:30.286Z,100566.65
2018-04-23T02:36:33.639Z,100569.97
2018-04-23T02:37:36.960Z,100572.15
2018-04-23T02:38:40.298Z,100580.03
2018-04-23T02:39:43.674Z,100581.81
2018-04-23T02:40:47.020Z,100578.89
2018-04-23T02:41:50.319Z,100581.89
2018-04-23T02:42:53.708Z,100575.34
2018-04-23T02:43:57.043Z,100578.28
2018-04-23T02:45:00.407Z,100579.55
2018-04-23T02:46:04.514Z,100580.95
2018-04-23T02:47:08.609Z,100580.00
2018-04-23T02:48:11.936Z,100584.45
2018-04-23T02:49:15.355Z,100594.73
2018-04-23T02:50:18.759Z,100603.81
2018-04-23T02:51:22.853Z,100611.58
2018-04-23T02:52:26.236Z,100616.22
2018-04-23T02:53:29.592Z,100620.13
2018-04-23T02:54:32.923Z,100631.53
2018-04-23T02:55:37.164Z,100627.57
2018-04-23T02:56:40.557Z,100629.02
2018-04-23T02:57:43.911Z,100630.94
2018-04-23T02:58:47.248Z,100626.20
2018-04-23T02:59:50.602Z,100621.35
2018-04-23T03:00:53.949Z,100619.69
2018-04-23T03:01:57.406Z,100613.15
2018-04-23T03:03:00.729Z,100619.51
2018-04-23T03:04:04.818Z,100616.83
2018-04-23T03:05:08.185Z,100622.67
2018-04-23T03:06:11.544Z,100623.95
2018-04-23T03:07:14.896Z,100616.14
2018-04-23T03:08:18.266Z,100608.14
2018-04-23T03:09:21.609Z,100612.23
2018-04-23T03:10:24.921Z,100605.16
2018-04-23T03:11:28.332Z,100598.70
2018-04-23T03:12:31.678Z,100602.51
2018-04-23T03:13:35.010Z,100608.55
2018-04-23T03:14:39.118Z,100607.38
2018-04-23T03:15:43.189Z,100602.27
2018-04-23T03:16:46.661Z,100598.73
2018-04-23T03:17:50.028Z,100602.41
2018-04-23T03:18:53.445Z,100595.84
2018-04-23T03:19:56.760Z,100597.88
2018-04-23T03:21:00.951Z,100606.41
2018-04-23T03:22:04.357Z,100603.03
2018-04-23T03:23:08.492Z,100606.59
2018-04-23T03:24:11.801Z,100608.44
2018-04-23T03:25:15.137Z,100600.33
2018-04-23T03:26:18.483Z,100598.97
2018-04-23T03:27:21.848Z,100607.08
2018-04-23T03:28:25.291Z,100607.80
2018-04-23T03:29:28.764Z,100611.48
2018-04-23T03:30:32.102Z,100605.23
2018-04-23T03:31:35.449Z,100615.84
2018-04-23T03:32:38.791Z,100622.56
2018-04-23T03:33:42.126Z,100621.13
2018-04-23T03:34:45.463Z,100623.92
2018-04-23T03:35:48.836Z,100630.89
2018-04-23T03:36:52.811Z,100628.41
2018-04-23T03:37:56.157Z,100626.28
2018-04-23T03:38:59.468Z,100619.02
2018-04-23T03:40:02.804Z,100618.45
2018-04-23T03:41:06.247Z,100633.58
2018-04-23T03:42:09.565Z,100626.98
2018-04-23T03:43:12.897Z,100630.22
2018-04-23T03:44:17.014Z,100630.45
2018-04-23T03:45:20.433Z,100625.32
2018-04-23T03:46:23.737Z,100625.16
2018-04-23T03:47:27.053Z,100625.28
2018-04-23T03:48:31.217Z,100619.63
2018-04-23T03:49:34.616Z,100614.75
2018-04-23T03:50:37.978Z,100611.72
2018-04-23T03:51:41.323Z,100621.61
2018-04-23T03:52:45.416Z,100618.92
2018-04-23T03:53:49.616Z,100617.51
2018-04-23T03:54:52.919Z,100619.55
2018-04-23T03:55:56.278Z,100622.08
2018-04-23T03:56:59.608Z,100623.53
2018-04-23T03:58:02.938Z,100626.83
2018-04-23T03:59:06.253Z,100631.44
2018-04-23T04:00:09.835Z,100630.36
2018-04-23T04:01:14.146Z,100615.74
2018-04-23T04:02:18.259Z,100627.20
2018-04-23T04:03:22.403Z,100625.23
2018-04-23T04:04:25.803Z,100628.14
2018-04-23T04:05:29.137Z,100625.28
2018-04-23T04:06:32.543Z,100626.41
2018-04-23T04:07:35.927Z,100619.33
2018-04-23T04:08:39.234Z,100631.42
2018-04-23T04:09:42.671Z,100635.27
2018-04-23T04:10:46.730Z,100633.16
2018-04-23T04:11:50.033Z,100638.83
2018-04-23T04:13:11.016Z,100636.70
2018-04-23T04:14:31.931Z,100629.15
2018-04-23T04:15:52.709Z,100631.37
2018-04-23T04:17:00.918Z,100632.55
2018-04-23T04:18:39.750Z,100627.57
2018-04-23T04:19:43.053Z,100629.95
2018-04-23T04:20:46.439Z,100634.02
2018-04-23T04:21:50.633Z,100638.58
2018-04-23T04:22:54.833Z,100634.90
2018-04-23T04:23:58.963Z,100639.73
2018-04-23T04:25:02.368Z,100644.23
2018-04-23T04:26:05.710Z,100622.30
2018-04-23T04:27:09.873Z,100644.57
2018-04-23T04:28:13.283Z,100637.81
2018-04-23T04:29:16.648Z,100636.35
2018-04-23T04:30:20.201Z,100635.62
2018-04-23T04:31:23.556Z,100629.01
2018-04-23T04:32:26.958Z,100627.34
2018-04-23T04:33:30.287Z,100635.82
2018-04-23T04:34:33.623Z,100632.47
2018-04-23T04:35:37.022Z,100643.11
2018-04-23T04:36:40.374Z,100645.85
2018-04-23T04:37:43.753Z,100640.14
2018-04-23T04:38:47.124Z,100638.13
2018-04-23T04:39:50.448Z,100639.85
2018-04-23T04:40:53.774Z,100642.49
2018-04-23T04:41:57.113Z,100635.95
2018-04-23T04:43:00.492Z,100648.80
2018-04-23T04:44:03.985Z,100648.86
2018-04-23T04:45:07.366Z,100645.03
2018-04-23T04:46:10.709Z,100645.00
2018-04-23T04:47:14.138Z,100656.69
2018-04-23T04:48:17.557Z,100657.53
2018-04-23T04:49:20.965Z,100658.34
2018-04-23T04:50:24.402Z,100668.00
2018-04-23T04:51:28.847Z,100670.16
2018-04-23T04:52:32.316Z,100665.05
2018-04-23T04:53:35.667Z,100666.95
2018-04-23T04:54:39.023Z,100669.38
2018-04-23T04:55:42.411Z,100673.73
2018-04-23T04:56:45.791Z,100669.22
2018-04-23T04:57:49.192Z,100670.47
2018-04-23T04:58:54.020Z,100667.02
2018-04-23T04:59:57.377Z,100673.31
2018-04-23T05:01:00.844Z,100684.03
2018-04-23T05:02:05.083Z,100682.53
2018-04-23T05:03:08.468Z,100685.42
2018-04-23T05:04:11.824Z,100691.84
2018-04-23T05:05:15.285Z,100676.30
2018-04-23T05:06:18.778Z,100688.00
2018-04-23T05:07:22.164Z,100692.89
2018-04-23T05:08:25.572Z,100692.75
2018-04-23T05:09:29.664Z,100690.56
2018-04-23T05:10:32.992Z,100694.33
2018-04-23T05:11:36.660Z,100682.66
2018-04-23T05:12:40.074Z,100684.52
2018-04-23T05:13:43.463Z,100676.77
2018-04-23T05:14:46.852Z,100689.66
2018-04-23T05:15:50.341Z,100696.06
2018-04-23T05:16:53.672Z,100694.47
2018-04-23T05:17:57.780Z,100699.53
2018-04-23T05:19:01.164Z,100687.96
2018-04-23T05:20:04.772Z,100701.66
2018-04-23T05:21:08.130Z,100707.16
2018-04-23T05:23:12.876Z,100695.63
2018-04-23T05:24:16.958Z,100707.47
2018-04-23T05:25:20.343Z,100695.28
2018-04-23T05:26:23.653Z,100702.84
2018-04-23T05:27:27.032Z,100702.08
2018-04-23T05:28:31.179Z,100713.02
2018-04-23T05:29:34.526Z,100707.41
2018-04-23T05:30:38.627Z,100699.88
2018-04-23T05:31:41.981Z,100699.31
2018-04-23T05:32:45.386Z,100704.48
2018-04-23T05:33:49.585Z,100703.33
2018-04-23T05:34:53.775Z,100715.26
2018-04-23T05:35:57.153Z,100711.53
2018-04-23T05:37:00.457Z,100717.88
2018-04-23T05:38:03.850Z,100717.58
2018-04-23T05:39:07.227Z,100719.20
2018-04-23T05:40:10.593Z,100726.14
2018-04-23T05:41:13.911Z,100721.16
2018-04-23T05:42:17.226Z,100715.09
2018-04-23T05:43:20.541Z,100725.46
2018-04-23T05:44:23.858Z,100719.61
2018-04-23T05:45:27.940Z,100729.21
2018-04-23T05:46:31.314Z,100737.65
2018-04-23T05:47:34.668Z,100731.78
2018-04-23T05:48:38.028Z,100725.09
2018-04-23T05:49:41.343Z,100729.80
2018-04-23T05:50:44.689Z,100727.56
2018-04-23T05:51:49.116Z,100735.06
2018-04-23T05:52:52.471Z,100730.09
2018-04-23T05:53:55.794Z,100735.20
2018-04-23T05:54:59.163Z,100734.44
2018-04-23T05:56:02.478Z,100732.78
2018-04-23T05:57:05.827Z,100745.28
2018-04-23T05:58:09.913Z,100753.07
2018-04-23T05:59:13.274Z,100739.66
2018-04-23T06:00:16.619Z,100751.00
2018-04-23T06:01:19.948Z,100749.11
2018-04-23T06:02:23.388Z,100741.26
2018-04-23T06:03:26.700Z,100749.35
2018-04-23T06:04:30.097Z,100747.70
2018-04-23T06:05:33.406Z,100748.46
2018-04-23T06:06:36.731Z,100754.69
2018-04-23T06:07:40.901Z,100756.31
2018-04-23T06:08:44.356Z,100756.67
2018-04-23T06:09:47.656Z,100770.59
2018-04-23T06:10:50.996Z,100768.91
2018-04-23T06:11:54.320Z,100771.81
2018-04-23T06:12:57.717Z,100758.33
2018-04-23T06:14:01.131Z,100761.28
2018-04-23T06:15:04.449Z,100755.14
2018-04-23T06:16:07.815Z,100764.10
2018-04-23T06:17:11.954Z,100762.86
2018-04-23T06:18:15.413Z,100778.38
2018-04-23T06:19:18.871Z,100770.04
2018-04-23T06:20:22.219Z,100756.23
2018-04-23T06:21:25.624Z,100771.37
2018-04-23T06:22:28.936Z,100765.25
2018-04-23T06:23:32.267Z,100764.66
2018-04-23T06:24:35.601Z,100765.69
2018-04-23T06:25:38.963Z,100773.28
2018-04-23T06:26:42.280Z,100768.92
2018-04-23T06:27:45.596Z,100765.19
2018-04-23T06:28:48.912Z,100763.27
2018-04-23T06:29:52.262Z,100775.94
2018-04-23T06:30:55.589Z,100769.19
2018-04-23T06:31:58.913Z,100769.64
2018-04-23T06:33:02.262Z,100767.10
2018-04-23T06:34:05.595Z,100779.45
2018-04-23T06:35:08.993Z,100785.10
2018-04-23T06:36:12.317Z,100782.97
2018-04-23T06:37:15.635Z,100777.75
2018-04-23T06:38:19.780Z,100785.38
2018-04-23T06:39:23.984Z,100783.92
2018-04-23T06:40:28.078Z,100774.27
2018-04-23T06:41:31.401Z,100772.73
2018-04-23T06:42:34.706Z,100776.27
2018-04-23T06:43:38.033Z,100777.62
2018-04-23T06:44:41.511Z,100776.05
2018-04-23T06:45:44.843Z,100781.76
2018-04-23T06:46:48.189Z,100790.63
2018-04-23T06:47:51.689Z,100793.52
2018-04-23T06:48:55.019Z,100794.31
2018-04-23T06:49:59.176Z,100789.05
2018-04-23T06:51:02.528Z,100798.17
2018-04-23T06:52:05.889Z,100806.08
2018-04-23T06:53:09.217Z,100803.73
2018-04-23T06:54:12.531Z,100810.61
2018-04-23T06:55:15.863Z,100802.48
2018-04-23T06:56:19.946Z,100807.97
2018-04-23T06:57:23.241Z,100798.18
2018-04-23T06:58:26.548Z,100799.62
2018-04-23T06:59:29.862Z,100796.31
2018-04-23T07:00:33.224Z,100807.41
2018-04-23T07:01:36.535Z,100806.84
2018-04-23T07:02:39.839Z,100803.36
2018-04-23T07:03:43.168Z,100815.95
2018-04-23T07:04:47.245Z,100806.40
2018-04-23T07:05:51.480Z,100807.31
2018-04-23T07:06:54.815Z,100805.86
2018-04-23T07:07:58.124Z,100809.06
2018-04-23T07:09:01.420Z,100826.38
2018-04-23T07:10:05.508Z,100810.36
2018-04-23T07:11:09.621Z,100816.06
2018-04-23T07:12:13.722Z,100816.61
2018-04-23T07:13:17.836Z,100813.66
2018-04-23T07:14:21.953Z,100823.65
2018-04-23T07:15:25.307Z,100823.52
2018-04-23T07:16:28.647Z,100823.91
2018-04-23T07:17:31.966Z,100828.22
2018-04-23T07:18:35.285Z,100824.06
2018-04-23T07:19:38.619Z,100820.16
2018-04-23T07:20:41.940Z,100819.22
2018-04-23T07:21:45.259Z,100824.26
2018-04-23T07:22:48.571Z,100821.14
2018-04-23T07:23:51.876Z,100815.57
2018-04-23T07:24:55.177Z,100833.63
2018-04-23T07:25:59.266Z,100822.20
2018-04-23T07:27:02.605Z,100833.06
2018-04-23T07:28:05.916Z,100822.55
2018-04-23T07:29:09.227Z,100828.12
2018-04-23T07:30:12.584Z,100822.66
2018-04-23T07:31:15.915Z,100821.41
2018-04-23T07:32:19.252Z,100826.14
2018-04-23T07:33:22.598Z,100827.97
2018-04-23T07:34:25.910Z,100831.73
2018-04-23T07:35:29.230Z,100825.06
2018-04-23T07:36:32.559Z,100827.27
2018-04-23T07:37:35.906Z,100826.66
2018-04-23T07:38:39.196Z,100821.38
2018-04-23T07:39:42.519Z,100822.91
2018-04-23T07:40:45.846Z,100823.82
2018-04-23T07:41:49.164Z,100826.75
2018-04-23T07:42:53.302Z,100826.08
2018-04-23T07:43:56.614Z,100829.00
2018-04-23T07:45:00.024Z,100824.80
2018-04-23T07:46:03.359Z,100828.52
2018-04-23T07:47:06.718Z,100833.37
2018-04-23T07:48:10.802Z,100835.47
2018-04-23T07:49:14.118Z,100837.50
2018-04-23T07:50:17.440Z,100833.67
2018-04-23T07:51:20.791Z,100823.59
2018-04-23T07:52:24.114Z,100833.51
2018-04-23T07:53:27.468Z,100831.84
2018-04-23T07:54:30.833Z,100825.76
2018-04-23T07:55:34.137Z,100838.09
2018-04-23T07:56:37.473Z,100836.89
2018-04-23T07:57:40.813Z,100834.15
2018-04-23T07:58:44.162Z,100838.05
2018-04-23T07:59:48.255Z,100840.42
2018-04-23T08:00:52.377Z,100831.62
2018-04-23T08:01:55.707Z,100842.94
2018-04-23T08:02:59.066Z,100841.95
2018-04-23T08:04:02.392Z,100839.82
2018-04-23T08:05:06.590Z,100843.84
2018-04-23T08:06:09.911Z,100848.44
2018-04-23T08:07:14.054Z,100844.34
2018-04-23T08:08:17.403Z,100846.95
2018-04-23T08:09:21.524Z,100842.89
2018-04-23T08:10:24.851Z,100840.52
2018-04-23T08:11:28.190Z,100844.70
2018-04-23T08:12:48.258Z,100835.86
2018-04-23T08:13:51.611Z,100847.15
2018-04-23T08:14:54.954Z,100848.55
2018-04-23T08:15:58.294Z,100841.66
2018-04-23T08:17:01.713Z,100840.53
2018-04-23T08:18:05.065Z,100851.02
2018-04-23T08:19:08.381Z,100853.11
2018-04-23T08:20:11.731Z,100849.17
2018-04-23T08:21:15.047Z,100841.72
2018-04-23T08:22:18.425Z,100852.98
2018-04-23T08:23:21.787Z,100858.02
2018-04-23T08:24:25.127Z,100855.25
2018-04-23T08:25:28.472Z,100850.07
2018-04-23T08:26:31.825Z,100856.49
2018-04-23T08:27:35.147Z,100849.52
2018-04-23T08:28:39.251Z,100856.17
2018-04-23T08:29:42.588Z,100856.11
2018-04-23T08:30:45.906Z,100856.97
2018-04-23T08:31:49.241Z,100867.95
2018-04-23T08:32:57.512Z,100867.55
2018-04-23T08:34:01.715Z,100868.78
2018-04-23T08:35:05.112Z,100857.25
2018-04-23T08:36:08.539Z,100864.08
2018-04-23T08:37:11.888Z,100862.66
2018-04-23T08:38:15.227Z,100861.94
2018-04-23T08:39:18.615Z,100861.88
2018-04-23T08:40:21.935Z,100864.34
2018-04-23T08:41:25.348Z,100866.98
2018-04-23T08:42:28.760Z,100859.55
2018-04-23T08:43:32.121Z,100865.54
2018-04-23T08:44:35.479Z,100868.11
2018-04-23T08:45:38.889Z,100872.70
2018-04-23T08:46:43.479Z,100878.58
2018-04-23T08:47:47.558Z,100870.33
2018-04-23T08:48:50.895Z,100865.54
2018-04-23T08:49:54.197Z,100862.40
2018-04-23T08:50:57.500Z,100867.59
2018-04-23T08:52:00.856Z,100863.61
2018-04-23T08:53:04.187Z,100859.27
2018-04-23T08:54:08.288Z,100867.27
2018-04-23T08:55:11.620Z,100860.09
2018-04-23T08:56:14.982Z,100871.91
2018-04-23T08:57:19.091Z,100868.30
2018-04-23T08:58:22.417Z,100854.72
2018-04-23T08:59:25.756Z,100871.46
2018-04-23T09:00:29.847Z,100868.53
2018-04-23T09:01:33.985Z,100875.89
2018-04-23T09:02:37.323Z,100865.67
2018-04-23T09:03:40.674Z,100864.61
2018-04-23T09:04:44.025Z,100878.39
2018-04-23T09:05:47.343Z,100873.84
2018-04-23T09:06:50.647Z,100867.81
2018-04-23T09:07:54.001Z,100879.00
2018-04-23T09:08:57.333Z,100874.98
2018-04-23T09:10:01.436Z,100879.95
2018-04-23T09:11:04.730Z,100879.05
2018-04-23T09:12:08.046Z,100885.07
2018-04-23T09:13:11.362Z,100887.09
2018-04-23T09:14:14.742Z,100887.89
2018-04-23T09:15:18.077Z,100883.02
2018-04-23T09:16:22.174Z,100884.39
2018-04-23T09:17:26.275Z,100881.17
2018-04-23T09:18:30.374Z,100877.42
2018-04-23T09:19:33.671Z,100881.46
2018-04-23T09:20:37.769Z,100873.48
2018-04-23T09:21:41.883Z,100884.34
2018-04-23T09:22:45.222Z,100873.91
2018-04-23T09:23:48.618Z,100878.05
2018-04-23T09:24:52.487Z,100874.63
2018-04-23T09:25:55.795Z,100885.19
2018-04-23T09:26:59.091Z,100890.45
2018-04-23T09:28:02.424Z,100883.73
2018-04-23T09:29:05.768Z,100880.23
2018-04-23T09:30:09.108Z,100885.92
2018-04-23T09:31:12.409Z,100889.84
2018-04-23T09:32:15.718Z,100889.29
2018-04-23T09:33:19.076Z,100890.80
2018-04-23T09:34:22.412Z,100891.63
2018-04-23T09:35:25.735Z,100888.55
2018-04-23T09:36:29.041Z,100883.51
2018-04-23T09:37:32.374Z,100887.41
2018-04-23T09:38:35.691Z,100888.71
2018-04-23T09:39:39.013Z,100884.84
2018-04-23T09:40:42.368Z,100901.83
2018-04-23T09:41:45.724Z,100895.34
2018-04-23T09:42:49.019Z,100900.09
2018-04-23T09:43:52.337Z,100900.53
2018-04-23T09:44:55.760Z,100900.50
2018-04-23T09:45:59.067Z,100900.83
2018-04-23T09:47:02.488Z,100902.77
2018-04-23T09:48:06.631Z,100907.38
2018-04-23T09:49:10.766Z,100914.19
2018-04-23T09:50:14.141Z,100913.04
2018-04-23T09:51:17.484Z,100915.45
2018-04-23T09:52:20.861Z,100913.23
2018-04-23T09:53:24.190Z,100915.50
2018-04-23T09:54:27.539Z,100911.47
2018-04-23T09:55:30.912Z,100913.61
2018-04-23T09:56:34.257Z,100904.71
2018-04-23T09:57:37.590Z,100907.48
2018-04-23T09:58:40.930Z,100919.70
2018-04-23T09:59:44.259Z,100908.59
2018-04-23T10:00:47.658Z,100923.58
2018-04-23T10:01:51.007Z,100926.44
2018-04-23T10:02:54.349Z,100901.77
2018-04-23T10:04:03.961Z,100916.73
2018-04-23T10:05:07.280Z,100918.73
2018-04-23T10:06:10.656Z,100923.77
2018-04-23T10:07:14.762Z,100920.98
2018-04-23T10:08:18.865Z,100924.65
2018-04-23T10:09:22.167Z,100920.70
2018-04-23T10:10:25.496Z,100916.91
2018-04-23T10:11:28.815Z,100921.20
2018-04-23T10:12:32.928Z,100914.88
2018-04-23T10:13:36.254Z,100923.69
2018-04-23T10:14:39.591Z,100926.39
2018-04-23T10:15:43.711Z,100927.42
2018-04-23T10:16:47.122Z,100927.27
2018-04-23T10:17:50.451Z,100923.77
2018-04-23T10:18:54.545Z,100923.72
2018-04-23T10:19:57.841Z,100930.85
2018-04-23T10:21:01.957Z,100924.45
2018-04-23T10:22:05.264Z,100927.34
2018-04-23T10:23:08.579Z,100933.44
2018-04-23T10:24:11.908Z,100939.34
2018-04-23T10:25:15.247Z,100932.31
2018-04-23T10:26:18.595Z,100922.92
2018-04-23T10:27:21.961Z,100932.90
2018-04-23T10:28:26.045Z,100933.20
2018-04-23T10:29:29.371Z,100933.94
2018-04-23T10:30:32.731Z,100929.50
2018-04-23T10:31:36.839Z,100929.70
2018-04-23T10:32:40.215Z,100931.55
2018-04-23T10:33:44.326Z,100925.91
2018-04-23T10:34:48.442Z,100925.70
2018-04-23T10:35:51.780Z,100936.20
2018-04-23T10:36:59.126Z,100933.42
2018-04-23T10:38:02.504Z,100934.42
2018-04-23T10:39:07.719Z,100934.71
2018-04-23T10:40:11.065Z,100931.27
2018-04-23T10:41:14.472Z,100939.73
2018-04-23T10:42:17.784Z,100929.41
2018-04-23T10:43:21.126Z,100928.22
2018-04-23T10:44:24.442Z,100928.15
2018-04-23T10:45:28.622Z,100919.42
2018-04-23T10:46:31.931Z,100935.25
2018-04-23T10:47:35.998Z,100925.42
2018-04-23T10:48:39.319Z,100935.33
2018-04-23T10:49:43.406Z,100935.33
2018-04-23T10:50:47.508Z,100928.38
2018-04-23T10:51:51.591Z,100926.19
2018-04-23T10:52:54.929Z,100943.81
2018-04-23T10:53:58.251Z,100934.09
2018-04-23T10:55:01.562Z,100931.89
2018-04-23T10:56:05.644Z,100925.63
2018-04-23T10:57:08.971Z,100930.39
2018-04-23T10:58:13.047Z,100931.95
2018-04-23T10:59:16.371Z,100930.67
2018-04-23T11:00:19.715Z,100941.95
2018-04-23T11:01:23.530Z,100935.05
2018-04-23T11:02:26.865Z,100942.95
2018-04-23T11:03:30.187Z,100931.42
2018-04-23T11:04:33.839Z,100946.88
2018-04-23T11:05:37.221Z,100943.75
2018-04-23T11:06:40.566Z,100947.76
2018-04-23T11:07:44.667Z,100935.97
2018-04-23T11:08:48.751Z,100941.63
2018-04-23T11:09:52.071Z,100942.64
2018-04-23T11:10:55.408Z,100928.58
2018-04-23T11:11:58.799Z,100947.19
2018-04-23T11:13:02.931Z,100938.22
2018-04-23T11:14:06.263Z,100922.77
2018-04-23T11:15:09.675Z,100942.47
2018-04-23T11:16:12.991Z,100935.06
2018-04-23T11:17:16.312Z,100937.85
2018-04-23T11:18:19.636Z,100939.31
2018-04-23T11:19:22.943Z,100940.70
2018-04-23T11:20:26.292Z,100931.53
2018-04-23T11:21:29.666Z,100930.27
2018-04-23T11:22:33.047Z,100939.67
2018-04-23T11:23:36.369Z,100939.50
2018-04-23T11:24:39.683Z,100938.56
2018-04-23T11:25:43.021Z,100937.10
2018-04-23T11:26:46.322Z,100927.59
2018-04-23T11:27:49.657Z,100933.67
2018-04-23T11:28:53.004Z,100931.06
2018-04-23T11:29:57.119Z,100924.53
2018-04-23T11:31:00.461Z,100927.31
2018-04-23T11:32:03.915Z,100937.39
2018-04-23T11:33:07.276Z,100926.03
2018-04-23T11:34:10.578Z,100935.78
2018-04-23T11:35:13.931Z,100930.25
2018-04-23T11:36:17.269Z,100930.28
2018-04-23T11:37:20.619Z,100933.02
2018-04-23T11:38:23.968Z,100931.92
2018-04-23T11:39:27.341Z,100925.16
2018-04-23T11:40:31.314Z,100931.75
2018-04-23T11:41:34.701Z,100933.39
2018-04-23T11:42:38.115Z,100936.46
2018-04-23T11:43:41.474Z,100934.38
2018-04-23T11:44:44.775Z,100931.58
2018-04-23T11:45:48.304Z,100926.80
2018-04-23T11:46:51.471Z,100927.78
2018-04-23T11:47:54.792Z,100937.31
2018-04-23T11:48:58.135Z,100932.14
2018-04-23T11:50:01.485Z,100926.79
2018-04-23T11:51:04.801Z,100927.50
2018-04-23T11:52:08.909Z,100932.55
2018-04-23T11:53:12.223Z,100938.15
2018-04-23T11:54:15.530Z,100943.91
2018-04-23T11:55:18.852Z,100939.77
2018-04-23T11:56:22.179Z,100938.23
2018-04-23T11:57:25.546Z,100938.27
2018-04-23T11:58:28.880Z,100939.58
2018-04-23T11:59:32.209Z,100939.30
2018-04-23T12:00:36.334Z,100948.79
2018-04-23T12:01:40.392Z,100936.52
2018-04-23T12:02:43.796Z,100945.39
2018-04-23T12:03:47.111Z,100939.33
2018-04-23T12:04:51.186Z,100938.31
2018-04-23T12:05:54.634Z,100932.73
2018-04-23T12:06:57.919Z,100942.50
2018-04-23T12:08:01.314Z,100932.63